Time;durP1;ratioP1;P1;durP2;ratioP2;P2;SDS_P1;SDS_P2;PMS_P1;PMS_P2;Temp;Humidity;BMP_temperature;BMP_pressure;BME280_temperature;BME280_humidity;BME280_pressure;Samples;Min_cycle;Max_cycle;Signal;HPM_P1;HPM_P2
2021/11/13 00:01:39;;;;;;;104.27;38.80;;;;;;;7.97;100.00;100855.03;714012;1200;113954;-73
2021/11/13 00:16:42;;;;;;;76.70;31.35;;;;;;;7.95;100.00;100835.17;714226;1202;114605;-74
2021/11/13 00:31:45;;;;;;;228.10;65.28;;;;;;;7.88;100.00;100834.76;714708;1174;113691;-73
2021/11/13 00:46:47;;;;;;;123.08;43.60;;;;;;;7.78;100.00;100823.25;714471;1199;114864;-74
2021/11/13 01:01:50;;;;;;;126.60;39.90;;;;;;;7.35;100.00;100826.97;714145;1199;115182;-74
2021/11/13 01:16:53;;;;;;;69.60;26.57;;;;;;;7.18;100.00;100830.69;714429;1174;114012;-74
2021/11/13 01:31:55;;;;;;;59.93;26.10;;;;;;;6.97;100.00;100801.61;714587;1174;113690;-75
2021/11/13 01:46:58;;;;;;;68.57;27.83;;;;;;;6.86;100.00;100798.84;714358;1202;113797;-73
2021/11/13 02:02:00;;;;;;;59.45;24.88;;;;;;;6.90;100.00;100780.30;714047;1202;114688;-74
2021/11/13 02:17:03;;;;;;;62.73;24.98;;;;;;;6.81;100.00;100786.94;714173;1175;113655;-73
2021/11/13 02:32:06;;;;;;;59.50;23.98;;;;;;;6.86;100.00;100778.80;714567;1202;115866;-73
2021/11/13 02:47:09;;;;;;;55.30;23.23;;;;;;;6.89;100.00;100796.02;714071;1200;114536;-73
2021/11/13 03:02:12;;;;;;;68.70;26.48;;;;;;;7.01;100.00;100776.98;713980;1199;114276;-74
2021/11/13 03:17:14;;;;;;;74.80;29.35;;;;;;;6.99;100.00;100764.05;713857;1200;113967;-73
2021/11/13 03:32:16;;;;;;;97.83;36.73;;;;;;;7.10;100.00;100763.34;714238;1199;114686;-74
2021/11/13 03:47:18;;;;;;;136.18;45.33;;;;;;;7.07;100.00;100750.47;714099;1202;114487;-74
2021/11/13 04:02:22;;;;;;;73.28;30.83;;;;;;;7.12;100.00;100753.63;714013;1200;114971;-74
2021/11/13 04:17:24;;;;;;;70.10;28.17;;;;;;;7.16;100.00;100736.00;714408;1199;115403;-74
2021/11/13 04:32:29;;;;;;;66.25;24.05;;;;;;;7.17;100.00;100722.02;714050;1199;114471;-74
2021/11/13 04:47:33;;;;;;;59.80;23.95;;;;;;;7.22;100.00;100719.09;713838;1202;114255;-74
2021/11/13 05:02:36;;;;;;;63.73;23.90;;;;;;;7.22;100.00;100730.38;713691;1178;115063;-74
2021/11/13 05:17:39;;;;;;;57.13;20.88;;;;;;;7.20;100.00;100726.20;714195;1199;114656;-74
2021/11/13 05:32:42;;;;;;;50.43;17.98;;;;;;;7.18;100.00;100736.74;713992;1199;115026;-74
2021/11/13 05:47:45;;;;;;;47.90;18.50;;;;;;;7.33;100.00;100729.66;713900;1202;114662;-74
2021/11/13 06:02:48;;;;;;;35.73;15.93;;;;;;;7.38;100.00;100724.96;713924;1174;114112;-74
2021/11/13 06:17:51;;;;;;;44.13;20.10;;;;;;;7.29;100.00;100733.41;714175;1202;113969;-74
2021/11/13 06:32:55;;;;;;;45.80;21.43;;;;;;;7.44;100.00;100724.55;714134;1199;113876;-74
2021/11/13 06:47:57;;;;;;;41.98;18.80;;;;;;;7.52;100.00;100731.84;713816;1202;113955;-74
2021/11/13 07:03:02;;;;;;;223.70;64.23;;;;;;;7.64;100.00;100732.78;714522;1199;115344;-75
2021/11/13 07:18:05;;;;;;;80.15;29.28;;;;;;;7.84;100.00;100734.03;716023;1176;113937;-74
2021/11/13 07:33:09;;;;;;;63.45;25.10;;;;;;;7.98;100.00;100746.13;714932;1203;115775;-72
2021/11/13 07:48:11;;;;;;;57.98;25.33;;;;;;;8.12;100.00;100732.09;714550;1200;114489;-74
2021/11/13 08:03:14;;;;;;;117.53;49.65;;;;;;;8.21;100.00;100712.30;714801;1202;113770;-72
2021/11/13 08:18:17;;;;;;;90.22;36.50;;;;;;;8.42;100.00;100697.70;715938;1199;114482;-74
2021/11/13 08:33:20;;;;;;;98.35;38.15;;;;;;;8.41;100.00;100716.13;715141;1199;115061;-70
2021/11/13 08:48:23;;;;;;;98.35;38.68;;;;;;;8.48;100.00;100689.42;720022;1177;113673;-72
2021/11/13 09:03:33;;;;;;;83.93;32.90;;;;;;;8.64;100.00;100706.63;717323;1177;113670;-76
2021/11/13 09:18:38;;;;;;;87.30;33.77;;;;;;;8.64;100.00;100699.63;715106;1178;113705;-75
2021/11/13 09:33:42;;;;;;;70.73;30.53;;;;;;;8.63;100.00;100705.80;714562;1200;113950;-78
2021/11/13 09:48:45;;;;;;;143.60;46.35;;;;;;;8.59;100.00;100693.05;715021;1188;114558;-75
2021/11/13 10:03:48;;;;;;;106.25;39.55;;;;;;;8.64;100.00;100672.62;714574;1200;114854;-73
2021/11/13 10:18:55;;;;;;;117.95;48.68;;;;;;;8.15;100.00;100679.61;715228;1202;114283;-74
2021/11/13 10:34:01;;;;;;;104.48;40.25;;;;;;;8.14;100.00;100683.16;714838;1200;114103;-74
2021/11/13 10:49:06;;;;;;;113.00;42.65;;;;;;;8.55;100.00;100678.53;714537;1200;113911;-73
2021/11/13 11:04:19;;;;;;;129.45;47.60;;;;;;;8.12;100.00;100688.50;715296;1200;113995;-73
2021/11/13 11:19:26;;;;;;;144.85;48.63;;;;;;;8.18;100.00;100683.78;715010;1176;113829;-73
2021/11/13 11:34:38;;;;;;;129.17;45.50;;;;;;;8.37;100.00;100668.44;715128;1199;114379;-73
2021/11/13 11:49:46;;;;;;;195.20;80.73;;;;;;;8.48;100.00;100658.05;715359;1199;115537;-73
2021/11/13 12:04:49;;;;;;;175.68;67.10;;;;;;;8.68;100.00;100647.90;715622;1200;115702;-73
2021/11/13 12:20:04;;;;;;;170.98;63.68;;;;;;;8.88;100.00;100622.03;715839;1175;113975;-73
2021/11/13 12:35:07;;;;;;;390.40;130.00;;;;;;;8.93;100.00;100617.29;714578;1193;114049;-75
2021/11/13 12:50:21;;;;;;;418.83;141.83;;;;;;;8.94;100.00;100611.11;714773;1174;113903;-73
2021/11/13 13:05:24;;;;;;;217.35;84.55;;;;;;;9.09;100.00;100591.63;714920;1174;114569;-75
2021/11/13 13:20:33;;;;;;;146.00;58.17;;;;;;;9.18;100.00;100576.16;714543;1202;114713;-74
2021/11/13 13:35:38;;;;;;;220.95;86.00;;;;;;;9.18;100.00;100570.92;714538;1200;114303;-74
2021/11/13 13:50:45;;;;;;;134.80;57.03;;;;;;;9.12;100.00;100569.63;714967;1202;114653;-75
2021/11/13 14:05:48;;;;;;;174.00;78.60;;;;;;;8.91;100.00;100587.81;714842;1202;113985;-79
2021/11/13 14:20:51;;;;;;;149.85;58.25;;;;;;;8.96;100.00;100585.64;714454;1199;114868;-78
2021/11/13 14:35:54;;;;;;;124.07;55.60;;;;;;;8.85;100.00;100583.03;714486;1191;114849;-79
2021/11/13 14:50:56;;;;;;;176.37;66.03;;;;;;;8.78;100.00;100578.26;715613;1199;114589;-83
2021/11/13 15:06:03;;;;;;;183.98;73.53;;;;;;;8.69;100.00;100599.88;714870;1174;114002;-81
2021/11/13 15:21:08;;;;;;;119.58;49.15;;;;;;;8.70;100.00;100603.31;714920;1175;114984;-80
2021/11/13 15:36:17;;;;;;;137.33;50.85;;;;;;;8.76;100.00;100606.34;714698;1199;113942;-78
2021/11/13 15:51:22;;;;;;;476.50;151.85;;;;;;;8.80;100.00;100627.84;715178;1176;113885;-80
2021/11/13 16:06:25;;;;;;;177.17;73.87;;;;;;;8.75;100.00;100646.52;715522;1174;114142;-81
2021/11/13 16:21:28;;;;;;;118.30;52.20;;;;;;;8.75;100.00;100649.13;714734;1199;114154;-81
2021/11/13 16:36:30;;;;;;;174.25;80.03;;;;;;;8.71;100.00;100663.39;714362;1200;113859;-81
2021/11/13 16:51:36;;;;;;;179.88;89.28;;;;;;;8.79;100.00;100678.52;714573;1174;114026;-80
2021/11/13 17:06:40;;;;;;;302.50;105.77;;;;;;;8.76;100.00;100691.80;715838;1177;114127;-80
2021/11/13 17:21:44;;;;;;;103.93;47.75;;;;;;;8.71;100.00;100686.93;714974;1175;114635;-75
2021/11/13 17:36:47;;;;;;;87.58;39.75;;;;;;;8.71;100.00;100704.39;714852;1174;115362;-79
2021/11/13 17:51:50;;;;;;;80.20;35.30;;;;;;;8.61;100.00;100702.45;716409;1199;114318;-78
2021/11/13 18:06:53;;;;;;;149.20;52.88;;;;;;;8.53;100.00;100690.90;715279;1180;114582;-75
2021/11/13 18:21:55;;;;;;;88.73;38.20;;;;;;;8.46;100.00;100704.41;714484;1182;113987;-77
2021/11/13 18:36:59;;;;;;;110.03;47.08;;;;;;;8.39;100.00;100697.91;714702;1177;113798;-75
2021/11/13 18:52:03;;;;;;;72.57;35.47;;;;;;;8.27;100.00;100704.85;715203;1199;114920;-76
2021/11/13 19:07:06;;;;;;;73.73;33.48;;;;;;;8.19;100.00;100715.02;714629;1199;115987;-74
2021/11/13 19:22:10;;;;;;;87.40;37.57;;;;;;;8.07;100.00;100719.34;714320;1203;114311;-73
2021/11/13 19:37:13;;;;;;;218.70;62.00;;;;;;;8.05;100.00;100736.92;714769;1200;113230;-73
2021/11/13 19:52:16;;;;;;;131.60;52.15;;;;;;;8.05;100.00;100747.38;714574;1200;114053;-74
2021/11/13 20:07:19;;;;;;;383.03;99.85;;;;;;;8.06;100.00;100761.27;714416;1199;115360;-74
2021/11/13 20:22:23;;;;;;;83.15;38.08;;;;;;;8.05;100.00;100781.34;714691;1177;114226;-74
2021/11/13 20:37:26;;;;;;;76.50;35.35;;;;;;;7.99;100.00;100789.60;714739;1199;114366;-73
2021/11/13 20:52:29;;;;;;;431.30;97.15;;;;;;;8.05;100.00;100804.86;714860;1202;113869;-74
2021/11/13 21:07:31;;;;;;;299.03;76.83;;;;;;;8.08;100.00;100788.14;714613;1199;114266;-73
2021/11/13 21:22:35;;;;;;;273.20;68.80;;;;;;;8.03;100.00;100779.78;714761;1200;114253;-73
2021/11/13 21:37:39;;;;;;;181.25;57.38;;;;;;;7.98;100.00;100782.70;714940;1200;114035;-73
2021/11/13 21:52:57;;;;;;;258.20;73.45;;;;;;;8.05;100.00;100786.58;714418;1176;114031;-73
2021/11/13 22:08:00;;;;;;;157.73;47.75;;;;;;;8.00;100.00;100786.05;714517;1199;115811;-73
2021/11/13 22:23:05;;;;;;;100.23;39.13;;;;;;;7.91;100.00;100789.30;714372;1200;115707;-73
2021/11/13 22:38:08;;;;;;;112.20;40.33;;;;;;;7.91;100.00;100791.91;714143;1200;114088;-73
2021/11/13 22:53:11;;;;;;;90.83;35.23;;;;;;;7.71;100.00;100774.97;714888;1175;114856;-73
2021/11/13 23:08:14;;;;;;;159.60;48.90;;;;;;;7.70;100.00;100783.77;716121;1179;114503;-74
2021/11/13 23:23:18;;;;;;;189.65;55.00;;;;;;;7.62;100.00;100776.45;715210;1202;114758;-75
2021/11/13 23:38:22;;;;;;;95.45;35.70;;;;;;;7.54;100.00;100776.97;715102;1199;115729;-76
2021/11/13 23:53:24;;;;;;;68.73;31.58;;;;;;;7.49;100.00;100792.92;715206;1199;113969;-77
